Time;durP1;ratioP1;P1;durP2;ratioP2;P2;SDS_P1;SDS_P2;PMS_P1;PMS_P2;Temp;Humidity;BMP_temperature;BMP_pressure;BME280_temperature;BME280_humidity;BME280_pressure;Samples;Min_cycle;Max_cycle;Signal;HPM_P1;HPM_P2
2022/08/20 00:00:13;;;;;;;16.75;14.57;;;19.00;99.90;;;;;;5089239;28;20099;-54
2022/08/20 00:02:44;;;;;;;17.63;14.85;;;18.90;99.90;;;;;;5088750;28;20621;-54
2022/08/20 00:05:11;;;;;;;16.67;14.40;;;18.90;99.90;;;;;;5089542;28;20487;-53
2022/08/20 00:07:37;;;;;;;16.05;14.20;;;18.90;99.90;;;;;;5089452;28;20028;-53
2022/08/20 00:10:04;;;;;;;15.32;13.65;;;18.90;99.90;;;;;;5089635;28;20475;-53
2022/08/20 00:12:30;;;;;;;17.08;15.27;;;18.90;99.90;;;;;;5089065;28;20081;-53
2022/08/20 00:14:56;;;;;;;16.23;14.27;;;18.90;99.90;;;;;;5089711;28;20387;-53
2022/08/20 00:17:21;;;;;;;18.10;14.93;;;18.80;99.90;;;;;;5081872;28;20472;-53
2022/08/20 00:19:47;;;;;;;16.70;14.90;;;18.80;99.90;;;;;;5074699;28;20033;-53
2022/08/20 00:22:12;;;;;;;18.60;15.52;;;18.70;99.90;;;;;;5069151;28;20029;-53
2022/08/20 00:24:38;;;;;;;16.70;14.70;;;18.70;99.90;;;;;;5069097;28;20028;-53
2022/08/20 00:27:04;;;;;;;16.20;14.30;;;18.70;99.90;;;;;;5068991;28;20439;-53
2022/08/20 00:29:29;;;;;;;17.58;15.35;;;18.60;99.90;;;;;;5069168;28;20130;-53
2022/08/20 00:31:55;;;;;;;16.77;14.48;;;18.60;99.90;;;;;;5068516;28;20581;-53
2022/08/20 00:34:20;;;;;;;17.13;14.35;;;18.60;99.90;;;;;;5069339;28;20147;-53
2022/08/20 00:36:46;;;;;;;16.25;14.00;;;18.60;99.90;;;;;;5076200;28;20487;-53
2022/08/20 00:39:12;;;;;;;15.13;13.52;;;18.60;99.90;;;;;;5091081;28;20016;-53
2022/08/20 00:41:38;;;;;;;19.27;15.43;;;18.60;99.90;;;;;;5092932;28;20058;-52
2022/08/20 00:44:03;;;;;;;16.20;14.40;;;18.50;99.90;;;;;;5092565;28;20188;-53
2022/08/20 00:46:29;;;;;;;16.17;14.40;;;18.50;99.90;;;;;;5093537;28;20016;-53
2022/08/20 00:48:57;;;;;;;16.20;14.13;;;18.50;99.90;;;;;;5077885;28;20115;-53
2022/08/20 00:51:27;;;;;;;17.05;14.93;;;18.40;99.90;;;;;;5090966;28;20024;-53
2022/08/20 00:54:18;;;;;;;20.45;17.35;;;18.40;99.90;;;;;;5092074;28;20040;-53
2022/08/20 00:56:49;;;;;;;15.93;14.20;;;18.50;99.90;;;;;;5092517;28;20036;-53
2022/08/20 00:59:17;;;;;;;;;;;18.50;99.90;;;;;;5093660;28;20023;-53
2022/08/20 01:01:44;;;;;;;16.92;14.57;;;18.50;99.90;;;;;;5090998;28;20298;-53
2022/08/20 01:04:10;;;;;;;19.92;15.65;;;18.50;99.90;;;;;;5090036;28;20024;-53
2022/08/20 01:06:37;;;;;;;19.55;16.27;;;18.60;99.90;;;;;;5083819;28;20077;-53
2022/08/20 01:09:04;;;;;;;18.23;15.43;;;18.60;99.90;;;;;;5092720;28;20643;-53
2022/08/20 01:11:33;;;;;;;18.85;15.38;;;18.60;99.90;;;;;;5089809;28;20024;-53
2022/08/20 01:14:01;;;;;;;18.40;14.32;;;18.60;99.90;;;;;;5077647;28;20067;-53
2022/08/20 01:16:30;;;;;;;16.67;14.80;;;18.60;99.90;;;;;;5072079;28;20033;-53
2022/08/20 01:18:57;;;;;;;16.20;14.45;;;18.70;99.90;;;;;;5070776;28;20024;-53
2022/08/20 01:21:27;;;;;;;17.10;15.07;;;18.70;99.90;;;;;;5071621;28;20386;-54
2022/08/20 01:24:00;;;;;;;16.50;14.52;;;18.70;99.90;;;;;;5076455;28;20479;-53
2022/08/20 01:26:33;;;;;;;19.55;14.73;;;18.60;99.90;;;;;;5072151;28;20107;-53
2022/08/20 01:29:06;;;;;;;20.10;16.38;;;18.70;99.90;;;;;;5072278;28;20395;-53
2022/08/20 01:31:34;;;;;;;18.80;16.80;;;18.60;99.90;;;;;;5071605;28;20511;-53
2022/08/20 01:34:02;;;;;;;17.67;15.07;;;18.60;99.90;;;;;;5071803;28;20399;-53
2022/08/20 01:36:35;;;;;;;20.27;18.08;;;18.60;99.90;;;;;;5079220;28;20032;-53
2022/08/20 01:39:04;;;;;;;18.35;16.15;;;18.60;99.90;;;;;;5086951;28;20024;-53
2022/08/20 01:41:44;;;;;;;17.25;15.45;;;18.60;99.90;;;;;;5091845;28;20031;-53
2022/08/20 01:44:11;;;;;;;23.10;17.08;;;18.60;99.90;;;;;;5084762;28;20021;-53
2022/08/20 01:46:40;;;;;;;20.63;16.17;;;18.60;99.90;;;;;;5072192;28;20016;-53
2022/08/20 01:49:28;;;;;;;18.00;15.43;;;18.60;99.90;;;;;;5071665;28;20055;-53
2022/08/20 01:52:00;;;;;;;19.77;15.55;;;18.50;99.90;;;;;;5069222;28;20047;-53
2022/08/20 01:54:27;;;;;;;17.65;15.23;;;18.60;99.90;;;;;;5073338;28;20028;-53
2022/08/20 01:56:59;;;;;;;16.33;14.63;;;18.60;99.90;;;;;;5071303;28;20341;-53
2022/08/20 01:59:25;;;;;;;16.75;14.77;;;18.60;99.90;;;;;;5071255;28;20039;-53
2022/08/20 02:01:51;;;;;;;17.45;15.38;;;18.50;99.90;;;;;;5070816;28;20035;-53
2022/08/20 02:04:18;;;;;;;19.83;17.00;;;18.50;99.90;;;;;;5071363;28;20396;-53
2022/08/20 02:06:50;;;;;;;16.85;15.07;;;18.50;99.90;;;;;;5071105;28;20028;-53
2022/08/20 02:09:16;;;;;;;17.05;15.25;;;18.50;99.90;;;;;;5071410;28;20104;-53
2022/08/20 02:11:42;;;;;;;21.00;15.55;;;18.50;99.90;;;;;;5082721;28;20095;-53
2022/08/20 02:14:10;;;;;;;17.63;15.55;;;18.50;99.90;;;;;;5090920;28;20028;-53
2022/08/20 02:16:41;;;;;;;18.80;15.93;;;18.50;99.90;;;;;;5091471;28;20028;-53
2022/08/20 02:19:15;;;;;;;17.17;15.35;;;18.50;99.90;;;;;;5091572;28;20365;-53
2022/08/20 02:21:45;;;;;;;16.27;14.50;;;18.50;99.90;;;;;;5089426;28;20506;-53
2022/08/20 02:24:11;;;;;;;;;;;18.50;99.90;;;;;;5091657;28;20527;-53
2022/08/20 02:26:38;;;;;;;16.58;14.32;;;18.40;99.90;;;;;;5091167;28;19988;-53
2022/08/20 02:29:07;;;;;;;18.08;16.02;;;18.40;99.90;;;;;;5091055;28;20024;-54
2022/08/20 02:31:33;;;;;;;17.83;14.60;;;18.40;99.90;;;;;;5090691;28;20089;-53
2022/08/20 02:33:58;;;;;;;19.52;16.13;;;18.40;99.90;;;;;;5090947;28;20043;-53
2022/08/20 02:36:26;;;;;;;17.52;14.85;;;18.30;99.90;;;;;;5084082;28;20028;-53
2022/08/20 02:38:52;;;;;;;19.08;16.48;;;18.30;99.90;;;;;;5084868;28;20467;-53
2022/08/20 02:41:20;;;;;;;18.83;14.88;;;18.30;99.90;;;;;;5081136;28;20036;-53
2022/08/20 02:43:45;;;;;;;18.02;15.65;;;18.30;99.90;;;;;;5082403;28;20016;-53
2022/08/20 02:46:11;;;;;;;18.58;14.45;;;18.30;99.90;;;;;;5086512;28;20024;-53
2022/08/20 02:48:38;;;;;;;17.52;14.70;;;18.20;99.90;;;;;;5082250;28;20032;-53
2022/08/20 02:51:05;;;;;;;18.75;15.98;;;18.20;99.90;;;;;;5090391;28;20286;-53
2022/08/20 02:53:34;;;;;;;17.58;15.68;;;18.20;99.90;;;;;;5090902;28;20413;-53
2022/08/20 02:55:59;;;;;;;17.58;14.80;;;18.10;99.90;;;;;;5090714;28;20085;-53
2022/08/20 02:58:26;;;;;;;18.92;15.23;;;18.10;99.90;;;;;;5090699;28;20122;-53
2022/08/20 03:00:52;;;;;;;17.95;15.35;;;18.00;99.90;;;;;;5088797;28;20498;-53
2022/08/20 03:03:21;;;;;;;16.42;14.68;;;18.00;99.90;;;;;;5088680;28;20032;-53
2022/08/20 03:05:48;;;;;;;19.52;16.55;;;18.00;99.90;;;;;;5090557;28;20013;-53
2022/08/20 03:08:16;;;;;;;16.35;14.55;;;18.00;99.90;;;;;;5090362;28;20058;-53
2022/08/20 03:10:44;;;;;;;16.70;14.93;;;18.00;99.90;;;;;;5090198;28;20024;-53
2022/08/20 03:13:11;;;;;;;19.95;17.02;;;17.90;99.90;;;;;;5090408;28;20483;-53
2022/08/20 03:15:42;;;;;;;18.20;16.15;;;17.90;99.90;;;;;;5090171;28;20020;-53
2022/08/20 03:18:07;;;;;;;;;;;17.90;99.90;;;;;;5089443;28;20491;-53
2022/08/20 03:20:33;;;;;;;17.85;15.95;;;17.90;99.90;;;;;;5069925;28;19918;-53
2022/08/20 03:22:58;;;;;;;18.80;15.05;;;17.90;99.90;;;;;;5070067;28;20024;-53
2022/08/20 03:25:24;;;;;;;17.15;15.35;;;17.90;99.90;;;;;;5070219;28;20384;-53
2022/08/20 03:27:50;;;;;;;17.48;15.65;;;17.80;99.90;;;;;;5069174;28;20021;-53
2022/08/20 03:30:16;;;;;;;18.38;16.25;;;17.80;99.90;;;;;;5078239;28;20567;-53
2022/08/20 03:32:42;;;;;;;17.05;15.23;;;17.70;99.90;;;;;;5069456;28;20270;-53
2022/08/20 03:35:10;;;;;;;18.15;16.05;;;17.70;99.90;;;;;;5061713;28;20029;-53
2022/08/20 03:37:36;;;;;;;20.48;16.98;;;17.70;99.90;;;;;;5072989;28;20064;-53
2022/08/20 03:40:05;;;;;;;19.83;16.83;;;17.60;99.90;;;;;;5089770;28;20090;-53
2022/08/20 03:42:30;;;;;;;22.08;18.08;;;17.70;99.90;;;;;;5089007;28;20095;-53
2022/08/20 03:44:56;;;;;;;22.30;18.23;;;17.60;99.90;;;;;;5089724;28;20099;-53
2022/08/20 03:47:22;;;;;;;23.80;18.48;;;17.50;99.90;;;;;;5071095;28;20020;-53
2022/08/20 03:49:49;;;;;;;18.42;16.50;;;17.60;99.90;;;;;;5081818;28;20586;-53
2022/08/20 03:52:16;;;;;;;18.83;16.38;;;17.50;99.90;;;;;;5089184;28;20118;-53
2022/08/20 03:54:44;;;;;;;20.92;17.20;;;17.50;99.90;;;;;;5089581;28;20020;-53
2022/08/20 03:57:13;;;;;;;21.55;17.60;;;17.50;99.90;;;;;;5089475;28;20024;-53
2022/08/20 03:59:38;;;;;;;17.75;15.82;;;17.50;99.90;;;;;;5089190;28;20024;-53
2022/08/20 04:02:05;;;;;;;21.77;18.50;;;17.40;99.90;;;;;;5089239;28;20020;-53
2022/08/20 04:04:30;;;;;;;21.45;18.55;;;17.40;99.90;;;;;;5089594;28;20042;-53
2022/08/20 04:06:56;;;;;;;22.23;19.10;;;17.40;99.90;;;;;;5089350;28;20323;-53
2022/08/20 04:09:21;;;;;;;21.80;18.20;;;17.40;99.90;;;;;;5089723;28;20103;-52
2022/08/20 04:11:47;;;;;;;21.30;17.67;;;17.40;99.90;;;;;;5088817;28;20429;-53
2022/08/20 04:14:13;;;;;;;21.63;17.27;;;17.40;99.90;;;;;;5088401;28;20047;-53
2022/08/20 04:16:39;;;;;;;18.60;16.02;;;17.30;99.90;;;;;;5080726;28;20511;-53
2022/08/20 04:19:06;;;;;;;18.88;16.40;;;17.30;99.90;;;;;;5080841;28;20059;-53
2022/08/20 04:21:32;;;;;;;20.92;17.05;;;17.30;99.90;;;;;;5088553;28;20026;-53
2022/08/20 04:23:59;;;;;;;24.67;19.00;;;17.30;99.90;;;;;;5089205;28;20116;-53
2022/08/20 04:26:24;;;;;;;20.00;17.10;;;17.30;99.90;;;;;;5089141;28;20358;-53
2022/08/20 04:28:51;;;;;;;18.80;16.40;;;17.30;99.90;;;;;;5088859;28;20504;-52
2022/08/20 04:31:17;;;;;;;19.20;17.15;;;17.30;99.90;;;;;;5086388;28;20032;-52
2022/08/20 04:33:43;;;;;;;20.80;18.23;;;17.30;99.90;;;;;;5076111;28;20028;-52
2022/08/20 04:36:08;;;;;;;21.10;16.63;;;17.30;99.90;;;;;;5068556;28;20032;-52
2022/08/20 04:38:34;;;;;;;19.65;16.98;;;17.30;99.90;;;;;;5076579;28;20590;-53
2022/08/20 04:41:00;;;;;;;22.77;18.35;;;17.20;99.90;;;;;;5067920;28;20025;-53
2022/08/20 04:43:32;;;;;;;20.80;17.55;;;17.30;99.90;;;;;;5068708;28;20028;-52
2022/08/20 04:46:00;;;;;;;20.90;17.75;;;17.30;99.90;;;;;;5068703;28;20083;-52
2022/08/20 04:48:27;;;;;;;22.65;18.38;;;17.30;99.90;;;;;;5076459;28;20513;-56
2022/08/20 04:50:54;;;;;;;27.25;20.63;;;17.30;99.90;;;;;;5068470;28;20032;-52
2022/08/20 04:53:23;;;;;;;24.73;19.42;;;17.40;99.90;;;;;;5067715;28;20276;-53
2022/08/20 04:56:08;;;;;;;23.40;18.55;;;17.40;99.90;;;;;;5080422;28;20032;-52
2022/08/20 04:58:37;;;;;;;23.90;19.80;;;17.40;99.90;;;;;;5069231;28;20119;-52
2022/08/20 05:01:10;;;;;;;29.23;21.42;;;17.50;99.90;;;;;;5065233;28;20032;-52
2022/08/20 05:03:40;;;;;;;19.77;16.80;;;17.50;99.90;;;;;;5068187;28;20495;-52
2022/08/20 05:06:08;;;;;;;25.75;20.63;;;17.60;99.90;;;;;;5068224;28;20545;-53
2022/08/20 05:08:34;;;;;;;25.75;21.15;;;17.60;99.90;;;;;;5067148;28;20047;-52
2022/08/20 05:11:00;;;;;;;27.55;22.40;;;17.70;99.90;;;;;;5067560;28;20419;-52
2022/08/20 05:13:26;;;;;;;27.90;22.27;;;17.80;99.90;;;;;;5066517;28;20027;-52
2022/08/20 05:15:52;;;;;;;23.50;20.13;;;17.90;99.90;;;;;;5067144;28;20025;-53
2022/08/20 05:18:21;;;;;;;28.38;22.40;;;17.90;99.90;;;;;;5067936;28;20503;-53
2022/08/20 05:20:48;;;;;;;26.92;22.63;;;18.00;99.90;;;;;;5078510;28;20486;-53
2022/08/20 05:23:16;;;;;;;29.70;22.17;;;18.10;99.90;;;;;;5078819;28;20031;-53
2022/08/20 05:25:43;;;;;;;26.80;21.67;;;18.10;99.90;;;;;;5089705;28;20020;-53
2022/08/20 05:28:20;;;;;;;26.88;22.42;;;18.10;99.90;;;;;;5092095;28;20028;-52
2022/08/20 05:30:47;;;;;;;32.83;22.58;;;18.20;99.90;;;;;;5091528;28;20046;-53
2022/08/20 05:33:15;;;;;;;30.75;23.20;;;18.30;99.90;;;;;;5092031;28;20093;-52
2022/08/20 05:35:42;;;;;;;26.75;23.08;;;18.30;99.90;;;;;;5092040;28;20095;-53
2022/08/20 05:38:10;;;;;;;27.00;22.15;;;18.40;99.90;;;;;;5084742;28;20020;-52
2022/08/20 05:40:37;;;;;;;24.17;20.35;;;18.40;99.90;;;;;;5075376;28;20061;-52
2022/08/20 05:43:03;;;;;;;25.80;21.38;;;18.40;99.90;;;;;;5091855;28;20323;-53
2022/08/20 05:45:30;;;;;;;25.95;20.50;;;18.50;99.90;;;;;;5084801;28;20112;-53
2022/08/20 05:47:57;;;;;;;23.38;20.20;;;18.50;99.90;;;;;;5071573;28;20028;-53
2022/08/20 05:50:22;;;;;;;24.98;21.33;;;18.60;99.90;;;;;;5079255;28;20031;-53
2022/08/20 05:52:48;;;;;;;28.77;21.92;;;18.60;99.90;;;;;;5084013;28;20036;-53
2022/08/20 05:55:13;;;;;;;31.17;21.58;;;18.70;99.90;;;;;;5068741;28;20021;-52
2022/08/20 05:57:40;;;;;;;27.40;22.15;;;18.70;99.90;;;;;;5082834;28;20024;-53
2022/08/20 06:00:11;;;;;;;27.38;22.15;;;18.70;99.90;;;;;;5085477;28;20028;-52
2022/08/20 06:05:22;;;;;;;28.88;21.55;;;18.70;99.90;;;;;;5073064;28;20392;-52
2022/08/20 06:07:49;;;;;;;24.27;20.35;;;18.80;99.90;;;;;;5081463;28;20032;-53
2022/08/20 06:10:15;;;;;;;23.38;20.00;;;18.80;99.90;;;;;;5081895;28;20028;-52
2022/08/20 06:12:44;;;;;;;24.73;21.38;;;18.90;99.90;;;;;;5082515;28;20054;-52
2022/08/20 06:15:11;;;;;;;24.25;19.90;;;18.90;99.90;;;;;;5085989;28;20017;-52
2022/08/20 06:17:38;;;;;;;22.92;19.27;;;19.00;99.90;;;;;;5083251;28;20491;-52
2022/08/20 06:20:06;;;;;;;21.25;16.75;;;19.00;99.90;;;;;;5073845;28;20033;-53
2022/08/20 06:22:32;;;;;;;23.75;18.70;;;19.10;99.90;;;;;;5081355;28;20507;-52
2022/08/20 06:24:58;;;;;;;22.85;19.10;;;19.20;99.90;;;;;;5091039;28;20028;-52
2022/08/20 06:27:25;;;;;;;21.27;18.60;;;19.20;99.90;;;;;;5080636;28;20013;-52
2022/08/20 06:29:51;;;;;;;17.73;15.45;;;19.40;99.90;;;;;;5083688;28;20016;-52
2022/08/20 06:32:18;;;;;;;21.17;17.67;;;19.50;99.90;;;;;;5074322;28;20471;-52
2022/08/20 06:34:44;;;;;;;19.77;17.08;;;19.60;99.90;;;;;;5083798;28;20023;-52
2022/08/20 06:37:14;;;;;;;17.40;15.15;;;19.70;99.90;;;;;;5085638;28;20032;-53
2022/08/20 06:39:40;;;;;;;16.02;13.82;;;19.90;99.90;;;;;;5090738;28;20034;-53
2022/08/20 06:42:06;;;;;;;17.35;13.77;;;20.10;99.90;;;;;;5087198;28;20450;-53
2022/08/20 06:44:31;;;;;;;17.73;13.98;;;20.20;99.90;;;;;;5078875;28;20258;-53
2022/08/20 06:47:02;;;;;;;13.30;11.93;;;20.40;99.90;;;;;;5069196;28;20388;-53
2022/08/20 06:49:28;;;;;;;13.13;11.57;;;20.60;99.90;;;;;;5065800;28;20071;-54
2022/08/20 06:51:53;;;;;;;11.70;10.30;;;20.90;99.90;;;;;;5080344;28;20048;-55
2022/08/20 06:54:19;;;;;;;11.88;10.57;;;21.00;99.90;;;;;;5090201;28;20028;-54
2022/08/20 06:56:44;;;;;;;11.68;10.27;;;21.10;99.90;;;;;;5079150;28;20028;-55
2022/08/20 06:59:11;;;;;;;13.88;11.57;;;21.10;99.90;;;;;;5086700;28;20024;-54
2022/08/20 07:01:36;;;;;;;13.07;11.02;;;21.10;99.90;;;;;;5088254;28;20511;-55
2022/08/20 07:04:02;;;;;;;11.68;10.45;;;21.00;99.90;;;;;;5090621;28;20028;-54
2022/08/20 07:06:27;;;;;;;12.70;11.40;;;21.10;99.90;;;;;;5090153;28;20031;-54
2022/08/20 07:08:54;;;;;;;16.20;12.43;;;21.00;99.90;;;;;;5088962;28;20043;-53
2022/08/20 07:11:20;;;;;;;20.10;11.85;;;20.90;99.90;;;;;;5089296;28;20093;-54
2022/08/20 07:13:47;;;;;;;11.93;10.43;;;20.80;99.90;;;;;;5089919;28;20119;-55
2022/08/20 07:16:13;;;;;;;11.23;10.07;;;20.70;99.90;;;;;;5089606;28;20077;-54
2022/08/20 07:18:39;;;;;;;16.08;12.65;;;20.60;99.90;;;;;;5075766;28;20123;-54
2022/08/20 07:21:05;;;;;;;14.93;12.20;;;20.50;99.90;;;;;;5085008;28;20024;-54
2022/08/20 07:23:30;;;;;;;12.45;11.10;;;20.30;99.90;;;;;;5088507;28;20024;-54
2022/08/20 07:25:56;;;;;;;16.63;14.25;;;20.30;99.90;;;;;;5084599;28;20028;-54
2022/08/20 07:28:24;;;;;;;15.35;12.10;;;20.30;99.90;;;;;;5081111;28;20369;-54
2022/08/20 07:33:36;;;;;;;19.80;13.80;;;20.20;99.90;;;;;;5089390;28;20052;-54
2022/08/20 07:36:03;;;;;;;15.20;11.90;;;20.30;99.90;;;;;;5089559;28;20038;-54
2022/08/20 07:38:29;;;;;;;13.70;11.63;;;20.30;99.90;;;;;;5089749;28;20058;-54
2022/08/20 07:40:58;;;;;;;14.02;12.48;;;20.30;99.90;;;;;;5088905;28;20028;-55
2022/08/20 07:43:24;;;;;;;16.67;12.85;;;20.40;99.90;;;;;;5089582;28;20102;-54
2022/08/20 07:45:50;;;;;;;16.02;12.25;;;20.40;99.90;;;;;;5089480;28;20020;-54
2022/08/20 07:48:16;;;;;;;15.57;12.48;;;20.40;99.90;;;;;;5082297;28;20463;-54
2022/08/20 07:50:42;;;;;;;13.88;11.18;;;20.40;99.90;;;;;;5081564;28;20023;-54
2022/08/20 07:53:08;;;;;;;15.77;11.80;;;20.50;99.90;;;;;;5079475;28;20548;-54
2022/08/20 07:55:34;;;;;;;15.45;11.48;;;20.60;99.90;;;;;;5080175;28;20059;-54
2022/08/20 07:58:06;;;;;;;11.75;10.43;;;20.60;99.90;;;;;;5089384;28;20059;-55
2022/08/20 08:00:32;;;;;;;12.73;10.95;;;20.80;99.90;;;;;;5088993;28;20036;-54
2022/08/20 08:02:58;;;;;;;12.63;10.40;;;20.80;99.90;;;;;;5089069;28;20548;-54
2022/08/20 08:05:24;;;;;;;16.08;10.93;;;21.00;99.90;;;;;;5089123;28;20024;-54
2022/08/20 08:07:50;;;;;;;11.65;10.10;;;21.00;99.90;;;;;;5088738;28;20073;-54
2022/08/20 08:10:20;;;;;;;9.90;8.88;;;21.00;99.90;;;;;;5088956;28;20038;-54
2022/08/20 08:12:51;;;;;;;10.38;8.50;;;21.10;99.90;;;;;;5088305;28;20024;-54
2022/08/20 08:15:22;;;;;;;15.23;10.02;;;21.20;99.90;;;;;;5088809;28;20024;-54
2022/08/20 08:17:49;;;;;;;11.27;9.80;;;21.30;99.90;;;;;;5087517;28;20406;-54
2022/08/20 08:20:15;;;;;;;12.38;8.85;;;21.50;99.90;;;;;;5088765;28;20451;-54
2022/08/20 08:22:41;;;;;;;12.25;9.85;;;21.60;99.90;;;;;;5087595;28;20359;-55
2022/08/20 08:25:13;;;;;;;10.50;9.07;;;21.70;99.90;;;;;;5076656;28;20035;-54
2022/08/20 08:27:39;;;;;;;11.15;7.93;;;21.60;99.90;;;;;;5048805;28;20078;-54
2022/08/20 08:30:06;;;;;;;11.48;8.50;;;21.60;99.90;;;;;;5049055;28;20021;-54
2022/08/20 08:32:34;;;;;;;8.93;7.60;;;21.60;99.90;;;;;;5048256;28;20033;-54
2022/08/20 08:35:07;;;;;;;8.57;7.68;;;21.60;99.90;;;;;;5048674;28;20025;-54
2022/08/20 08:37:32;;;;;;;10.15;8.65;;;21.70;99.90;;;;;;5048465;28;20108;-55
2022/08/20 08:39:58;;;;;;;8.50;7.55;;;21.80;99.90;;;;;;5048164;28;20115;-54
2022/08/20 08:42:46;;;;;;;9.57;7.55;;;21.90;99.90;;;;;;5048075;28;20025;-55
2022/08/20 08:45:15;;;;;;;8.32;7.03;;;22.00;99.90;;;;;;5047365;28;20028;-55
2022/08/20 08:47:43;;;;;;;8.30;7.45;;;22.10;99.90;;;;;;5049603;28;20063;-55
2022/08/20 08:50:26;;;;;;;8.60;7.45;;;22.20;99.90;;;;;;5076433;28;20036;-55
2022/08/20 08:52:59;;;;;;;8.48;7.50;;;22.30;99.90;;;;;;5046817;28;20025;-55
2022/08/20 08:55:27;;;;;;;11.20;8.55;;;22.30;99.90;;;;;;5077124;28;20063;-55
2022/08/20 08:57:57;;;;;;;7.18;6.45;;;22.20;99.90;;;;;;5088697;28;20032;-54
2022/08/20 09:00:23;;;;;;;8.60;7.45;;;22.20;99.90;;;;;;5090632;28;20054;-55
2022/08/20 09:03:07;;;;;;;11.45;9.13;;;22.20;99.90;;;;;;5092211;28;20025;-54
2022/08/20 09:05:43;;;;;;;9.27;8.10;;;22.00;99.90;;;;;;5092715;28;20028;-54
2022/08/20 09:08:13;;;;;;;9.23;8.27;;;22.00;99.90;;;;;;5092789;28;20028;-55
2022/08/20 09:10:38;;;;;;;8.35;7.32;;;22.00;99.90;;;;;;5091675;28;20032;-54
2022/08/20 09:13:05;;;;;;;11.10;7.70;;;21.90;99.90;;;;;;5092289;28;20076;-54
2022/08/20 09:15:31;;;;;;;8.95;7.60;;;21.90;99.90;;;;;;5092344;28;20031;-54
2022/08/20 09:17:57;;;;;;;9.07;7.75;;;21.90;99.90;;;;;;5091050;28;20036;-54
2022/08/20 09:20:22;;;;;;;10.10;7.75;;;21.80;99.90;;;;;;5092352;28;20383;-54
2022/08/20 09:22:48;;;;;;;11.77;7.70;;;21.80;99.90;;;;;;5091360;28;20061;-54
2022/08/20 09:25:14;;;;;;;9.32;8.18;;;21.80;99.90;;;;;;5078562;28;20016;-55
2022/08/20 09:27:40;;;;;;;8.90;7.30;;;21.70;99.90;;;;;;5092224;28;20024;-57
2022/08/20 09:30:06;;;;;;;10.60;7.78;;;21.70;99.90;;;;;;5092077;28;20024;-56
2022/08/20 09:32:32;;;;;;;11.68;8.82;;;21.70;99.90;;;;;;5091555;28;20036;-56
2022/08/20 09:34:58;;;;;;;10.95;9.20;;;21.70;99.90;;;;;;5091914;28;20035;-56
2022/08/20 09:37:28;;;;;;;11.45;8.93;;;21.80;99.90;;;;;;5092409;28;20047;-55
2022/08/20 09:39:54;;;;;;;13.02;8.65;;;21.80;99.90;;;;;;5091949;28;20039;-56
2022/08/20 09:42:23;;;;;;;11.20;8.52;;;21.90;99.90;;;;;;5091131;28;20102;-56
2022/08/20 09:44:48;;;;;;;10.85;8.43;;;22.00;99.90;;;;;;5091659;28;20220;-55
2022/08/20 09:47:16;;;;;;;13.82;10.18;;;22.00;99.90;;;;;;5090457;28;20028;-55
2022/08/20 09:49:41;;;;;;;10.35;8.00;;;22.10;99.90;;;;;;5073729;28;20020;-56
2022/08/20 09:52:14;;;;;;;11.98;9.32;;;22.10;99.90;;;;;;5087093;28;20026;-55
2022/08/20 09:54:40;;;;;;;12.80;8.70;;;22.20;99.90;;;;;;5082079;28;20031;-55
2022/08/20 09:57:07;;;;;;;10.68;8.98;;;22.30;99.90;;;;;;5087246;28;20027;-55
2022/08/20 09:59:34;;;;;;;10.07;7.88;;;22.30;99.90;;;;;;5091502;28;20024;-55
2022/08/20 10:02:00;;;;;;;11.70;7.32;;;22.40;99.90;;;;;;5091230;28;20077;-55
2022/08/20 10:04:25;;;;;;;10.00;7.38;;;22.50;99.90;;;;;;5091398;28;20217;-55
2022/08/20 10:06:51;;;;;;;11.18;7.70;;;22.60;99.90;;;;;;5090238;28;20066;-55
2022/08/20 10:09:17;;;;;;;11.45;6.80;;;22.70;99.90;;;;;;5089837;28;20462;-56
2022/08/20 10:11:42;;;;;;;8.98;5.90;;;22.90;99.90;;;;;;5088480;28;20146;-55
2022/08/20 10:14:08;;;;;;;8.20;6.32;;;23.10;99.90;;;;;;5091450;28;20032;-56
2022/08/20 10:16:35;;;;;;;6.25;5.43;;;23.30;99.90;;;;;;5091563;28;20032;-54
2022/08/20 10:19:01;;;;;;;9.30;6.32;;;23.50;99.90;;;;;;5091441;28;20092;-56
2022/08/20 10:21:29;;;;;;;7.75;6.20;;;24.00;99.90;;;;;;5090967;28;20048;-56
2022/08/20 10:23:55;;;;;;;6.28;5.43;;;24.10;99.90;;;;;;5086685;28;20020;-56
2022/08/20 10:26:20;;;;;;;8.70;5.40;;;24.50;99.90;;;;;;5082752;28;20016;-55
2022/08/20 10:28:46;;;;;;;7.57;6.25;;;24.80;99.90;;;;;;5091468;28;20059;-56
2022/08/20 10:31:12;;;;;;;9.15;5.90;;;25.00;99.90;;;;;;5088950;28;20260;-56
2022/08/20 10:33:39;;;;;;;7.97;5.47;;;25.20;99.90;;;;;;5090841;28;20251;-56
2022/08/20 10:36:14;;;;;;;6.38;5.78;;;25.30;99.90;;;;;;5090855;28;20468;-56
2022/08/20 10:38:40;;;;;;;7.95;5.97;;;25.20;99.90;;;;;;5089485;28;20473;-56
2022/08/20 10:41:06;;;;;;;5.53;4.90;;;25.10;99.90;;;;;;5090119;28;20025;-56
2022/08/20 10:43:32;;;;;;;5.88;5.13;;;25.10;99.90;;;;;;5091010;28;20028;-56
2022/08/20 10:45:57;;;;;;;6.10;4.68;;;25.10;99.90;;;;;;5090918;28;20024;-56
2022/08/20 10:48:23;;;;;;;11.32;6.53;;;24.90;99.90;;;;;;5085511;28;20150;-58
2022/08/20 10:50:49;;;;;;;5.43;4.85;;;24.60;99.90;;;;;;5081603;28;20036;-56
2022/08/20 10:53:15;;;;;;;6.18;5.55;;;24.40;99.90;;;;;;5090774;28;20555;-56
2022/08/20 10:55:41;;;;;;;6.93;4.93;;;24.40;99.90;;;;;;5090970;28;20028;-55
2022/08/20 10:58:08;;;;;;;8.25;5.00;;;24.30;99.90;;;;;;5090560;28;20031;-56
2022/08/20 11:00:34;;;;;;;6.45;5.72;;;24.30;99.90;;;;;;5089853;28;20024;-56
2022/08/20 11:03:00;;;;;;;8.93;6.70;;;24.40;99.90;;;;;;5090194;28;20035;-55
2022/08/20 11:05:26;;;;;;;7.93;6.10;;;24.50;99.90;;;;;;5090053;28;20159;-55
2022/08/20 11:07:51;;;;;;;8.32;6.05;;;24.50;99.90;;;;;;5090517;28;20020;-54
2022/08/20 11:10:17;;;;;;;7.15;5.50;;;24.50;99.90;;;;;;5090140;28;20032;-54
2022/08/20 11:12:43;;;;;;;7.57;6.47;;;24.50;99.90;;;;;;5089407;28;20031;-54
2022/08/20 11:15:09;;;;;;;7.80;6.38;;;24.60;99.90;;;;;;5088833;28;20636;-56
2022/08/20 11:17:39;;;;;;;8.70;6.22;;;24.70;99.90;;;;;;5090117;28;20632;-56
2022/08/20 11:20:07;;;;;;;7.68;5.97;;;24.70;99.90;;;;;;5078595;28;20117;-54
2022/08/20 11:22:33;;;;;;;11.40;6.43;;;24.60;99.90;;;;;;5087584;28;20491;-56
2022/08/20 11:24:59;;;;;;;7.97;6.53;;;24.60;99.90;;;;;;5090203;28;20085;-55
2022/08/20 11:27:32;;;;;;;7.75;5.93;;;24.40;99.90;;;;;;5089892;28;20020;-55
2022/08/20 11:29:58;;;;;;;7.93;6.57;;;24.50;99.90;;;;;;5075585;28;20119;-55
2022/08/20 11:32:24;;;;;;;7.57;6.75;;;24.70;99.90;;;;;;5080888;28;20035;-56
2022/08/20 11:34:50;;;;;;;7.93;6.43;;;25.10;99.90;;;;;;5089998;28;20028;-55
2022/08/20 11:37:19;;;;;;;6.43;5.68;;;25.20;99.90;;;;;;5080079;28;20082;-56
2022/08/20 11:39:44;;;;;;;7.80;6.28;;;25.50;99.90;;;;;;5089313;28;20032;-54
2022/08/20 11:42:10;;;;;;;11.20;6.68;;;25.70;99.90;;;;;;5089096;28;20077;-54
2022/08/20 11:44:35;;;;;;;7.55;6.60;;;25.80;99.90;;;;;;5078309;28;20065;-55
2022/08/20 11:47:03;;;;;;;8.90;6.78;;;25.90;99.90;;;;;;5081163;28;20024;-56
2022/08/20 11:49:30;;;;;;;11.80;7.72;;;26.00;99.60;;;;;;5089486;28;20034;-55
2022/08/20 11:51:56;;;;;;;8.75;7.10;;;26.00;98.60;;;;;;5078812;28;20055;-54
2022/08/20 11:54:21;;;;;;;9.82;7.25;;;26.10;98.80;;;;;;5087134;28;20059;-55
2022/08/20 11:56:48;;;;;;;7.97;7.03;;;26.20;98.80;;;;;;5089488;28;20451;-55
2022/08/20 11:59:14;;;;;;;9.68;7.55;;;26.60;98.10;;;;;;5081089;28;20028;-55
2022/08/20 12:01:39;;;;;;;8.30;7.07;;;27.20;97.50;;;;;;5079931;28;20041;-55
2022/08/20 12:04:05;;;;;;;10.20;7.18;;;27.20;96.40;;;;;;5084260;28;20480;-56
2022/08/20 12:06:31;;;;;;;9.73;7.07;;;27.30;96.20;;;;;;5079829;28;20033;-56
2022/08/20 12:08:57;;;;;;;8.18;7.38;;;27.10;96.00;;;;;;5068701;28;20239;-56
2022/08/20 12:11:22;;;;;;;8.55;6.80;;;26.90;96.30;;;;;;5077016;28;20055;-56
2022/08/20 12:13:48;;;;;;;9.10;7.30;;;26.60;96.90;;;;;;5088340;28;20032;-56
2022/08/20 12:16:14;;;;;;;8.48;6.85;;;26.10;97.10;;;;;;5071907;28;20149;-55
2022/08/20 12:18:40;;;;;;;10.18;6.47;;;25.80;98.00;;;;;;5079774;28;20043;-54
2022/08/20 12:21:05;;;;;;;7.50;6.53;;;25.40;99.00;;;;;;5073287;28;20224;-56
2022/08/20 12:23:31;;;;;;;7.97;6.85;;;25.20;99.40;;;;;;5068982;28;20419;-55
2022/08/20 12:25:56;;;;;;;7.60;6.40;;;25.10;98.90;;;;;;5066515;28;20480;-55
2022/08/20 12:28:22;;;;;;;11.93;8.00;;;25.10;99.90;;;;;;5067868;28;20017;-55
2022/08/20 12:30:47;;;;;;;13.25;9.50;;;25.10;99.00;;;;;;5064726;28;20708;-56
2022/08/20 12:33:13;;;;;;;10.18;8.40;;;25.00;99.30;;;;;;5075207;28;20032;-55
2022/08/20 12:35:39;;;;;;;13.07;8.82;;;24.90;99.40;;;;;;5077830;28;20027;-56
2022/08/20 12:38:05;;;;;;;10.88;7.93;;;24.90;98.80;;;;;;5073901;28;20039;-56